GIA193 WIMM-WIII
Flight info
| Callsign | GIA193 |
|---|---|
| Flight time | N/A |
| Altitude | 35000 |
| Route | OMBES T5 BUNIK |
| Aircraft | B738/M-SDE2E3FGHIRWY/LB1 |
Departure
| Time | 2026-05-01 12:14 |
|---|---|
| Airport | Kualanamu International Airport (WIMM) |
Arrival
| Time | N/A |
|---|---|
| Airport | Soekarno-Hatta International Airport (WIII) |
| Time | Latitude | Longitude | Altitude | Speed | Heading |
|---|---|---|---|---|---|
| 2026-05-01 11:55 | 3.63656 | 98.88077 | 32 ft | 0 kts | 225° |
| 2026-05-01 12:01 | 3.63660 | 98.88081 | 32 ft | 2 kts | 225° |
| 2026-05-01 12:01 | 3.63671 | 98.88093 | 32 ft | 2 kts | 225° |
| 2026-05-01 12:02 | 3.63682 | 98.88103 | 32 ft | 2 kts | 225° |
| 2026-05-01 12:02 | 3.63693 | 98.88114 | 32 ft | 2 kts | 225° |
| 2026-05-01 12:02 | 3.63701 | 98.88126 | 32 ft | 2 kts | 259° |
| 2026-05-01 12:02 | 3.63701 | 98.88141 | 32 ft | 2 kts | 291° |
| 2026-05-01 12:03 | 3.63696 | 98.88149 | 32 ft | 0 kts | 313° |
| 2026-05-01 12:03 | 3.63691 | 98.88154 | 32 ft | 0 kts | 315° |
| 2026-05-01 12:05 | 3.63704 | 98.88141 | 32 ft | 8 kts | 315° |
| 2026-05-01 12:05 | 3.63752 | 98.88094 | 32 ft | 9 kts | 315° |
| 2026-05-01 12:06 | 3.63809 | 98.88038 | 32 ft | 14 kts | 315° |
| 2026-05-01 12:06 | 3.63878 | 98.87968 | 32 ft | 12 kts | 315° |
| 2026-05-01 12:06 | 3.63942 | 98.87977 | 32 ft | 12 kts | 45° |
| 2026-05-01 12:06 | 3.64029 | 98.88063 | 32 ft | 20 kts | 44° |
| 2026-05-01 12:07 | 3.64113 | 98.88139 | 32 ft | 12 kts | 13° |
| 2026-05-01 12:07 | 3.64182 | 98.88091 | 32 ft | 13 kts | 316° |
| 2026-05-01 12:07 | 3.64253 | 98.88023 | 32 ft | 13 kts | 316° |
| 2026-05-01 12:07 | 3.64293 | 98.87948 | 32 ft | 12 kts | 246° |
| 2026-05-01 12:08 | 3.64226 | 98.87874 | 32 ft | 18 kts | 225° |
| 2026-05-01 12:08 | 3.64125 | 98.87774 | 32 ft | 20 kts | 225° |
| 2026-05-01 12:08 | 3.64028 | 98.87677 | 32 ft | 19 kts | 225° |
| 2026-05-01 12:08 | 3.63937 | 98.87585 | 32 ft | 17 kts | 226° |
| 2026-05-01 12:09 | 3.63849 | 98.87500 | 32 ft | 17 kts | 224° |
| 2026-05-01 12:09 | 3.63747 | 98.87397 | 32 ft | 23 kts | 225° |
| 2026-05-01 12:09 | 3.63638 | 98.87291 | 32 ft | 15 kts | 225° |
| 2026-05-01 12:09 | 3.63638 | 98.87202 | 32 ft | 13 kts | 300° |
| 2026-05-01 12:10 | 3.63596 | 98.87118 | 32 ft | 18 kts | 225° |
| 2026-05-01 12:10 | 3.63374 | 98.86899 | 32 ft | 21 kts | 225° |
| 2026-05-01 12:10 | 3.63271 | 98.86791 | 32 ft | 20 kts | 226° |
| 2026-05-01 12:11 | 3.63067 | 98.86591 | 32 ft | 22 kts | 225° |
| 2026-05-01 12:11 | 3.62951 | 98.86475 | 32 ft | 26 kts | 225° |
| 2026-05-01 12:11 | 3.62820 | 98.86346 | 32 ft | 25 kts | 224° |
| 2026-05-01 12:12 | 3.62697 | 98.86221 | 32 ft | 24 kts | 225° |
| 2026-05-01 12:12 | 3.62581 | 98.86107 | 32 ft | 22 kts | 225° |
| 2026-05-01 12:12 | 3.62502 | 98.86002 | 32 ft | 17 kts | 268° |
| 2026-05-01 12:12 | 3.62563 | 98.85908 | 32 ft | 14 kts | 316° |
| 2026-05-01 12:13 | 3.62642 | 98.85917 | 32 ft | 13 kts | 46° |
| 2026-05-01 12:13 | 3.62801 | 98.86076 | 32 ft | 62 kts | 44° |
| 2026-05-01 12:13 | 3.63249 | 98.86521 | 32 ft | 118 kts | 44° |
| 2026-05-01 12:13 | 3.63948 | 98.87215 | 32 ft | 163 kts | 44° |
| 2026-05-01 12:14 | 3.64803 | 98.88074 | 354 ft | 175 kts | 45° |
| 2026-05-01 12:14 | 3.65655 | 98.88956 | 877 ft | 180 kts | 49° |
| 2026-05-01 12:14 | 3.66168 | 98.90101 | 1208 ft | 190 kts | 89° |
| 2026-05-01 12:14 | 3.65820 | 98.91402 | 1513 ft | 202 kts | 114° |
| 2026-05-01 12:15 | 3.65209 | 98.92748 | 1769 ft | 220 kts | 111° |
| 2026-05-01 12:15 | 3.64650 | 98.94247 | 2093 ft | 236 kts | 108° |
| 2026-05-01 12:15 | 3.64130 | 98.95848 | 2446 ft | 250 kts | 107° |
| 2026-05-01 12:15 | 3.63596 | 98.97530 | 2852 ft | 260 kts | 108° |
| 2026-05-01 12:16 | 3.63036 | 98.99267 | 3414 ft | 264 kts | 108° |
| 2026-05-01 12:16 | 3.62459 | 99.01032 | 4006 ft | 266 kts | 108° |
| 2026-05-01 12:16 | 3.61882 | 99.02790 | 4602 ft | 269 kts | 108° |
| 2026-05-01 12:16 | 3.61296 | 99.04576 | 5164 ft | 272 kts | 108° |
| 2026-05-01 12:17 | 3.60708 | 99.06372 | 5797 ft | 273 kts | 108° |
| 2026-05-01 12:17 | 3.60110 | 99.08195 | 6357 ft | 277 kts | 108° |
| 2026-05-01 12:17 | 3.59513 | 99.10020 | 6936 ft | 280 kts | 108° |
| 2026-05-01 12:17 | 3.58908 | 99.11867 | 7589 ft | 280 kts | 108° |
| 2026-05-01 12:18 | 3.58300 | 99.13718 | 8229 ft | 281 kts | 107° |
| 2026-05-01 12:18 | 3.57689 | 99.15577 | 8838 ft | 283 kts | 107° |
| 2026-05-01 12:18 | 3.57072 | 99.17436 | 9484 ft | 284 kts | 108° |
| 2026-05-01 12:18 | 3.56251 | 99.19246 | 10116 ft | 287 kts | 118° |
| 2026-05-01 12:19 | 3.55148 | 99.20942 | 10496 ft | 300 kts | 123° |
| 2026-05-01 12:19 | 3.53892 | 99.22659 | 10816 ft | 314 kts | 124° |
| 2026-05-01 12:19 | 3.52563 | 99.24463 | 11147 ft | 327 kts | 124° |
| 2026-05-01 12:19 | 3.51215 | 99.26331 | 11736 ft | 331 kts | 123° |
| 2026-05-01 12:20 | 3.49875 | 99.28228 | 12324 ft | 335 kts | 123° |
| 2026-05-01 12:20 | 3.48554 | 99.30121 | 12968 ft | 336 kts | 123° |
| 2026-05-01 12:20 | 3.47214 | 99.32049 | 13564 ft | 340 kts | 122° |
| 2026-05-01 12:20 | 3.45860 | 99.34002 | 14193 ft | 343 kts | 122° |
| 2026-05-01 12:21 | 3.44487 | 99.35981 | 14835 ft | 345 kts | 122° |
| 2026-05-01 12:21 | 3.43123 | 99.37945 | 15442 ft | 348 kts | 122° |
| 2026-05-01 12:21 | 3.41734 | 99.39945 | 16026 ft | 351 kts | 122° |
| 2026-05-01 12:21 | 3.40355 | 99.41932 | 16577 ft | 354 kts | 122° |
| 2026-05-01 12:22 | 3.38942 | 99.43965 | 17123 ft | 357 kts | 122° |
| 2026-05-01 12:22 | 3.37511 | 99.46024 | 17665 ft | 360 kts | 122° |
| 2026-05-01 12:22 | 3.36069 | 99.48096 | 18164 ft | 364 kts | 122° |
| 2026-05-01 12:22 | 3.34633 | 99.50161 | 18661 ft | 368 kts | 122° |
| 2026-05-01 12:23 | 3.33160 | 99.52261 | 19183 ft | 370 kts | 123° |
| 2026-05-01 12:23 | 3.31483 | 99.54269 | 19652 ft | 376 kts | 132° |
| 2026-05-01 12:23 | 3.29483 | 99.55939 | 20112 ft | 383 kts | 143° |
| 2026-05-01 12:23 | 3.27128 | 99.57259 | 20579 ft | 388 kts | 152° |
| 2026-05-01 12:24 | 3.24603 | 99.58312 | 21036 ft | 392 kts | 156° |
| 2026-05-01 12:24 | 3.22044 | 99.59251 | 21474 ft | 396 kts | 158° |
| 2026-05-01 12:24 | 3.19433 | 99.60163 | 21913 ft | 398 kts | 158° |
| 2026-05-01 12:24 | 3.16774 | 99.61080 | 22348 ft | 401 kts | 158° |
| 2026-05-01 12:25 | 3.14129 | 99.61996 | 22781 ft | 404 kts | 158° |
| 2026-05-01 12:25 | 3.08777 | 99.63872 | 23624 ft | 409 kts | 158° |
| 2026-05-01 12:25 | 3.06093 | 99.64822 | 24012 ft | 412 kts | 158° |
| 2026-05-01 12:26 | 3.03338 | 99.65804 | 24430 ft | 415 kts | 158° |
| 2026-05-01 12:26 | 2.97886 | 99.67754 | 25227 ft | 420 kts | 158° |
| 2026-05-01 12:26 | 2.95097 | 99.68753 | 25614 ft | 422 kts | 158° |
| 2026-05-01 12:27 | 2.92335 | 99.69743 | 26022 ft | 424 kts | 158° |
| 2026-05-01 12:27 | 2.86707 | 99.71750 | 26750 ft | 429 kts | 158° |
| 2026-05-01 12:28 | 2.81054 | 99.73756 | 27456 ft | 434 kts | 158° |
| 2026-05-01 12:28 | 2.78213 | 99.74766 | 27778 ft | 436 kts | 158° |
| 2026-05-01 12:28 | 2.72410 | 99.76829 | 28397 ft | 442 kts | 158° |
| 2026-05-01 12:29 | 2.69515 | 99.77858 | 28737 ft | 444 kts | 158° |
| 2026-05-01 12:29 | 2.66592 | 99.78897 | 29070 ft | 446 kts | 158° |
| 2026-05-01 12:29 | 2.60780 | 99.81170 | 29712 ft | 447 kts | 151° |
| 2026-05-01 12:30 | 2.55652 | 99.84705 | 30287 ft | 448 kts | 136° |
| 2026-05-01 12:30 | 2.53438 | 99.86877 | 30630 ft | 447 kts | 131° |
| 2026-05-01 12:30 | 2.51356 | 99.89227 | 30939 ft | 448 kts | 128° |
| 2026-05-01 12:31 | 2.49358 | 99.91637 | 31194 ft | 451 kts | 127° |
| 2026-05-01 12:31 | 2.47394 | 99.94064 | 31482 ft | 452 kts | 127° |
| 2026-05-01 12:31 | 2.45411 | 99.96518 | 31737 ft | 455 kts | 127° |
| 2026-05-01 12:31 | 2.43412 | 99.98968 | 32105 ft | 454 kts | 127° |
| 2026-05-01 12:32 | 2.41398 | 100.01409 | 32565 ft | 451 kts | 128° |
| 2026-05-01 12:32 | 2.37383 | 100.06206 | 33421 ft | 448 kts | 128° |
| 2026-05-01 12:32 | 2.35382 | 100.08577 | 33822 ft | 447 kts | 128° |
| 2026-05-01 12:33 | 2.33367 | 100.10957 | 34222 ft | 446 kts | 128° |
| 2026-05-01 12:33 | 2.31365 | 100.13318 | 34605 ft | 445 kts | 128° |
| 2026-05-01 12:33 | 2.29374 | 100.15662 | 34980 ft | 443 kts | 128° |
| 2026-05-01 12:33 | 2.27374 | 100.18004 | 35318 ft | 443 kts | 129° |
| 2026-05-01 12:34 | 2.25285 | 100.20291 | 35638 ft | 443 kts | 132° |
| 2026-05-01 12:34 | 2.23147 | 100.22478 | 35948 ft | 442 kts | 133° |
| 2026-05-01 12:34 | 2.20953 | 100.24654 | 36265 ft | 442 kts | 134° |
| 2026-05-01 12:34 | 2.18770 | 100.26798 | 36556 ft | 441 kts | 134° |
| 2026-05-01 12:35 | 2.16576 | 100.28953 | 36828 ft | 441 kts | 134° |
| 2026-05-01 12:35 | 2.14379 | 100.31120 | 36864 ft | 443 kts | 134° |
| 2026-05-01 12:35 | 2.09999 | 100.35474 | 36865 ft | 439 kts | 133° |
| 2026-05-01 12:36 | 2.05687 | 100.39790 | 36865 ft | 439 kts | 133° |
| 2026-05-01 12:36 | 2.01387 | 100.44112 | 36864 ft | 438 kts | 133° |
| 2026-05-01 12:37 | 1.97088 | 100.48438 | 36866 ft | 439 kts | 133° |
| 2026-05-01 12:37 | 1.92751 | 100.52806 | 36866 ft | 440 kts | 133° |
| 2026-05-01 12:38 | 1.88434 | 100.57153 | 36868 ft | 440 kts | 133° |
| 2026-05-01 12:38 | 1.84139 | 100.61476 | 36867 ft | 440 kts | 133° |
| 2026-05-01 12:39 | 1.79812 | 100.65833 | 36865 ft | 440 kts | 133° |
| 2026-05-01 12:39 | 1.75494 | 100.70180 | 36856 ft | 440 kts | 133° |
| 2026-05-01 12:40 | 1.71173 | 100.74528 | 36852 ft | 439 kts | 133° |
| 2026-05-01 12:40 | 1.66860 | 100.78869 | 36852 ft | 441 kts | 133° |
| 2026-05-01 12:41 | 1.62528 | 100.83228 | 36851 ft | 440 kts | 133° |
| 2026-05-01 12:41 | 1.58229 | 100.87553 | 36853 ft | 439 kts | 133° |
| 2026-05-01 12:42 | 1.53933 | 100.91876 | 36856 ft | 439 kts | 133° |
| 2026-05-01 12:42 | 1.49622 | 100.96214 | 36855 ft | 439 kts | 133° |
| 2026-05-01 12:43 | 1.45270 | 101.00594 | 36858 ft | 440 kts | 133° |
| 2026-05-01 12:43 | 1.40960 | 101.04929 | 36854 ft | 439 kts | 133° |
| 2026-05-01 12:44 | 1.36660 | 101.09255 | 36858 ft | 440 kts | 133° |
| 2026-05-01 12:45 | 1.28010 | 101.17956 | 36861 ft | 441 kts | 133° |
| 2026-05-01 12:45 | 1.23701 | 101.22290 | 36865 ft | 440 kts | 133° |
| 2026-05-01 12:46 | 1.19367 | 101.26650 | 36866 ft | 440 kts | 133° |
| 2026-05-01 12:46 | 1.15046 | 101.30996 | 36865 ft | 440 kts | 133° |
| 2026-05-01 12:47 | 1.10730 | 101.35335 | 36865 ft | 441 kts | 133° |
| 2026-05-01 12:47 | 1.06421 | 101.39669 | 36865 ft | 440 kts | 133° |
| 2026-05-01 12:48 | 1.02088 | 101.44026 | 36866 ft | 440 kts | 133° |
| 2026-05-01 12:48 | 0.97766 | 101.48373 | 36866 ft | 440 kts | 133° |
| 2026-05-01 12:49 | 0.93442 | 101.52721 | 36867 ft | 440 kts | 133° |
| 2026-05-01 12:49 | 0.89115 | 101.57071 | 36868 ft | 441 kts | 133° |
| 2026-05-01 12:50 | 0.84808 | 101.61402 | 36870 ft | 441 kts | 133° |
| 2026-05-01 12:50 | 0.80489 | 101.65745 | 36870 ft | 440 kts | 133° |
| 2026-05-01 12:51 | 0.76165 | 101.70093 | 36867 ft | 440 kts | 133° |
| 2026-05-01 12:52 | 0.69653 | 101.76638 | 36867 ft | 440 kts | 133° |
| 2026-05-01 12:52 | 0.63175 | 101.83151 | 36871 ft | 440 kts | 133° |
| 2026-05-01 12:53 | 0.56692 | 101.89667 | 36876 ft | 441 kts | 133° |
| 2026-05-01 12:54 | 0.52330 | 101.94051 | 36874 ft | 442 kts | 133° |
| 2026-05-01 12:54 | 0.45825 | 102.00590 | 36877 ft | 441 kts | 133° |
| 2026-05-01 12:55 | 0.39350 | 102.07100 | 36878 ft | 441 kts | 133° |
| 2026-05-01 12:56 | 0.35031 | 102.11440 | 36880 ft | 439 kts | 133° |
| 2026-05-01 12:56 | 0.30699 | 102.15795 | 36878 ft | 441 kts | 133° |
| 2026-05-01 12:57 | 0.26377 | 102.20139 | 36877 ft | 440 kts | 133° |
| 2026-05-01 12:57 | 0.19892 | 102.26657 | 36869 ft | 440 kts | 133° |
| 2026-05-01 12:58 | 0.15561 | 102.31010 | 36866 ft | 440 kts | 133° |
| 2026-05-01 12:59 | 0.09103 | 102.37500 | 36905 ft | 442 kts | 133° |
| 2026-05-01 12:59 | 0.06923 | 102.39692 | 37139 ft | 442 kts | 133° |
| 2026-05-01 12:59 | 0.02567 | 102.44070 | 37620 ft | 442 kts | 133° |
| 2026-05-01 13:00 | -0.01759 | 102.48418 | 38078 ft | 442 kts | 133° |
| 2026-05-01 13:00 | -0.03941 | 102.50611 | 38298 ft | 441 kts | 133° |
| 2026-05-01 13:01 | -0.08259 | 102.54951 | 38759 ft | 441 kts | 133° |
| 2026-05-01 13:01 | -0.10425 | 102.57127 | 38868 ft | 441 kts | 133° |
| 2026-05-01 13:02 | -0.16910 | 102.63644 | 38865 ft | 438 kts | 133° |
| 2026-05-01 13:07 | -0.64459 | 103.11436 | 38878 ft | 440 kts | 133° |
| 2026-05-01 13:08 | -0.68755 | 103.15755 | 38881 ft | 439 kts | 133° |
| 2026-05-01 13:08 | -0.73067 | 103.20091 | 38883 ft | 439 kts | 133° |
| 2026-05-01 13:09 | -0.77376 | 103.24422 | 38883 ft | 439 kts | 133° |
| 2026-05-01 13:09 | -0.81694 | 103.28763 | 38884 ft | 440 kts | 133° |
| 2026-05-01 13:10 | -0.86034 | 103.33125 | 38884 ft | 440 kts | 133° |
| 2026-05-01 13:10 | -0.90368 | 103.37395 | 38885 ft | 440 kts | 136° |
| 2026-05-01 13:11 | -0.95075 | 103.41362 | 38886 ft | 441 kts | 139° |
| 2026-05-01 13:11 | -0.99909 | 103.45190 | 38886 ft | 441 kts | 140° |
| 2026-05-01 13:12 | -1.04722 | 103.49000 | 38883 ft | 442 kts | 139° |
| 2026-05-01 13:12 | -1.09518 | 103.52834 | 38878 ft | 442 kts | 139° |
| 2026-05-01 13:13 | -1.14332 | 103.56709 | 38877 ft | 442 kts | 139° |
| 2026-05-01 13:13 | -1.19127 | 103.60583 | 38877 ft | 442 kts | 139° |
| 2026-05-01 13:14 | -1.23937 | 103.64475 | 38875 ft | 442 kts | 139° |
| 2026-05-01 13:14 | -1.27926 | 103.67705 | 38872 ft | 442 kts | 139° |
| 2026-05-01 13:15 | -1.33527 | 103.72241 | 38868 ft | 443 kts | 139° |
| 2026-05-01 13:15 | -1.38328 | 103.76131 | 38867 ft | 443 kts | 139° |
| 2026-05-01 13:16 | -1.43118 | 103.80010 | 38866 ft | 444 kts | 139° |
| 2026-05-01 13:16 | -1.47942 | 103.83916 | 38865 ft | 444 kts | 139° |
| 2026-05-01 13:17 | -1.57546 | 103.91695 | 38865 ft | 444 kts | 139° |
| 2026-05-01 13:18 | -1.64776 | 103.97553 | 38865 ft | 445 kts | 139° |
| 2026-05-01 13:18 | -1.69570 | 104.01436 | 38864 ft | 446 kts | 139° |
| 2026-05-01 13:19 | -1.74407 | 104.05354 | 38865 ft | 446 kts | 139° |
| 2026-05-01 13:20 | -1.81629 | 104.11205 | 38864 ft | 445 kts | 139° |
| 2026-05-01 13:20 | -1.86442 | 104.15106 | 38865 ft | 445 kts | 139° |
| 2026-05-01 13:21 | -1.93713 | 104.20998 | 38864 ft | 445 kts | 139° |
| 2026-05-01 13:21 | -1.98505 | 104.24882 | 38864 ft | 445 kts | 139° |
| 2026-05-01 13:22 | -2.03328 | 104.28790 | 38864 ft | 445 kts | 139° |
| 2026-05-01 13:22 | -2.08156 | 104.32703 | 38865 ft | 445 kts | 139° |
| 2026-05-01 13:23 | -2.12975 | 104.36608 | 38865 ft | 445 kts | 139° |
| 2026-05-01 13:23 | -2.17774 | 104.40498 | 38866 ft | 444 kts | 139° |
| 2026-05-01 13:24 | -2.22601 | 104.44408 | 38869 ft | 444 kts | 139° |
| 2026-05-01 13:25 | -2.29772 | 104.50220 | 38877 ft | 443 kts | 139° |
| 2026-05-01 13:25 | -2.34585 | 104.54123 | 38881 ft | 443 kts | 139° |
| 2026-05-01 13:26 | -2.39396 | 104.58025 | 38880 ft | 443 kts | 139° |
| 2026-05-01 13:26 | -2.44166 | 104.61894 | 38882 ft | 443 kts | 139° |
| 2026-05-01 13:27 | -2.48993 | 104.65807 | 38881 ft | 442 kts | 139° |
| 2026-05-01 13:27 | -2.56145 | 104.71607 | 38880 ft | 442 kts | 139° |
| 2026-05-01 13:28 | -2.63328 | 104.77434 | 38879 ft | 442 kts | 139° |
| 2026-05-01 13:29 | -2.72895 | 104.85194 | 38879 ft | 442 kts | 139° |
| 2026-05-01 13:31 | -2.87229 | 104.96826 | 38880 ft | 441 kts | 139° |
| 2026-05-01 13:32 | -2.99107 | 105.06468 | 38873 ft | 440 kts | 139° |
| 2026-05-01 13:33 | -3.11003 | 105.16129 | 38866 ft | 441 kts | 139° |
| 2026-05-01 13:34 | -3.20507 | 105.23847 | 38869 ft | 440 kts | 139° |
| 2026-05-01 13:35 | -3.27658 | 105.29671 | 38867 ft | 440 kts | 139° |
| 2026-05-01 13:36 | -3.34726 | 105.35571 | 38864 ft | 440 kts | 138° |
| 2026-05-01 13:36 | -3.41781 | 105.41484 | 38864 ft | 440 kts | 138° |
| 2026-05-01 13:37 | -3.45697 | 105.44761 | 38864 ft | 440 kts | 138° |
| 2026-05-01 13:37 | -3.51189 | 105.49352 | 38864 ft | 440 kts | 138° |
| 2026-05-01 13:38 | -3.58277 | 105.55273 | 38867 ft | 440 kts | 139° |
| 2026-05-01 13:39 | -3.62201 | 105.58550 | 38868 ft | 440 kts | 138° |
| 2026-05-01 13:39 | -3.67756 | 105.63025 | 38866 ft | 442 kts | 144° |
| 2026-05-01 13:40 | -3.71271 | 105.65168 | 38868 ft | 444 kts | 149° |